Time;durP1;ratioP1;P1;durP2;ratioP2;P2;SDS_P1;SDS_P2;PMS_P1;PMS_P2;Temp;Humidity;BMP_temperature;BMP_pressure;BME280_temperature;BME280_humidity;BME280_pressure;Samples;Min_cycle;Max_cycle;Signal;HPM_P1;HPM_P2
2021/10/29 00:00:34;;;;;;;20.60;15.73;;;5.30;99.90;;;;;;5017052;28;20649;-78
2021/10/29 00:03:00;;;;;;;22.67;15.17;;;5.20;99.90;;;;;;5016834;28;20201;-79
2021/10/29 00:05:25;;;;;;;20.07;15.83;;;5.10;99.90;;;;;;5017021;28;20178;-78
2021/10/29 00:07:51;;;;;;;24.40;16.13;;;5.10;99.90;;;;;;5017921;28;20197;-79
2021/10/29 00:10:17;;;;;;;18.60;15.60;;;4.90;99.90;;;;;;5016596;28;20628;-78
2021/10/29 00:12:43;;;;;;;24.43;16.57;;;4.90;99.90;;;;;;5017059;28;20190;-78
2021/10/29 00:15:09;;;;;;;22.03;15.63;;;5.00;99.90;;;;;;5016765;28;20189;-77
2021/10/29 00:17:35;;;;;;;23.57;16.33;;;5.00;99.90;;;;;;5015288;28;20211;-78
2021/10/29 00:20:02;;;;;;;21.00;15.93;;;5.00;99.90;;;;;;5016746;28;20185;-78
2021/10/29 00:22:28;;;;;;;24.27;16.20;;;5.00;99.90;;;;;;5014350;28;20231;-79
2021/10/29 00:24:54;;;;;;;18.93;15.40;;;5.00;99.90;;;;;;5016555;28;20661;-78
2021/10/29 00:27:20;;;;;;;20.33;14.53;;;5.10;99.90;;;;;;5015971;28;20199;-79
2021/10/29 00:29:45;;;;;;;20.53;14.97;;;5.00;99.90;;;;;;5015014;28;20176;-78
2021/10/29 00:32:11;;;;;;;21.63;16.23;;;4.90;99.90;;;;;;5016415;28;20191;-79
2021/10/29 00:34:37;;;;;;;21.20;15.57;;;4.90;99.90;;;;;;5015875;28;20262;-78
2021/10/29 00:37:03;;;;;;;20.37;15.70;;;4.80;99.90;;;;;;5015968;28;20268;-78
2021/10/29 00:39:28;;;;;;;22.50;15.57;;;4.70;99.90;;;;;;5016221;28;20210;-78
2021/10/29 00:41:54;;;;;;;19.53;15.13;;;4.60;99.90;;;;;;5014657;28;20229;-80
2021/10/29 00:44:25;;;;;;;22.43;16.37;;;4.60;99.90;;;;;;5015664;28;20182;-78
2021/10/29 00:46:51;;;;;;;20.00;15.70;;;4.60;99.90;;;;;;5015906;28;20667;-78
2021/10/29 00:49:17;;;;;;;24.03;15.87;;;4.70;99.90;;;;;;5014690;28;20661;-80
2021/10/29 00:51:43;;;;;;;21.57;15.67;;;4.60;99.90;;;;;;5015880;28;20179;-78
2021/10/29 00:54:10;;;;;;;19.00;14.27;;;4.60;99.90;;;;;;5014032;28;20175;-79
2021/10/29 00:56:36;;;;;;;21.97;15.33;;;4.60;99.90;;;;;;5015448;28;20173;-78
2021/10/29 00:59:02;;;;;;;19.93;15.50;;;4.50;99.90;;;;;;5015587;28;20197;-78
2021/10/29 01:01:28;;;;;;;23.13;14.73;;;4.50;99.90;;;;;;5015413;28;20172;-78
2021/10/29 01:03:54;;;;;;;22.77;15.30;;;4.40;99.90;;;;;;5015434;28;20635;-79
2021/10/29 01:06:20;;;;;;;19.53;14.60;;;4.50;99.90;;;;;;5013729;28;20663;-79
2021/10/29 01:08:46;;;;;;;18.63;15.30;;;4.40;99.90;;;;;;5015318;28;20209;-78
2021/10/29 01:11:14;;;;;;;20.67;15.77;;;4.40;99.90;;;;;;5014170;28;20192;-77
2021/10/29 01:13:44;;;;;;;15.83;14.00;;;4.40;99.90;;;;;;5015536;28;20331;-79
2021/10/29 01:16:11;;;;;;;18.57;14.17;;;4.40;99.90;;;;;;5017575;28;20188;-79
2021/10/29 01:18:36;;;;;;;20.20;15.23;;;4.40;99.90;;;;;;5015247;28;20195;-78
2021/10/29 01:21:02;;;;;;;21.60;15.60;;;4.30;99.90;;;;;;5014957;28;20188;-78
2021/10/29 01:23:28;;;;;;;18.30;15.17;;;4.20;99.90;;;;;;5013379;28;20241;-78
2021/10/29 01:26:03;;;;;;;19.43;14.77;;;4.10;99.90;;;;;;5013659;28;20176;-80
2021/10/29 01:28:29;;;;;;;17.63;14.93;;;4.20;99.90;;;;;;5015182;28;20200;-78
2021/10/29 01:30:55;;;;;;;20.70;15.17;;;4.20;99.90;;;;;;5014384;28;20175;-77
2021/10/29 01:33:21;;;;;;;23.03;15.67;;;4.10;99.90;;;;;;5014589;28;20191;-78
2021/10/29 01:35:47;;;;;;;21.97;15.83;;;4.10;99.90;;;;;;5015043;28;20646;-78
2021/10/29 01:38:13;;;;;;;20.67;14.57;;;4.30;99.90;;;;;;5014714;28;20211;-78
2021/10/29 01:40:38;;;;;;;18.93;13.70;;;4.30;99.90;;;;;;5014232;28;20184;-78
2021/10/29 01:43:05;;;;;;;34.27;17.47;;;4.20;99.90;;;;;;5015143;28;20204;-78
2021/10/29 01:45:32;;;;;;;66.90;20.17;;;4.20;99.90;;;;;;5013200;28;20614;-78
2021/10/29 01:47:58;;;;;;;31.70;18.10;;;4.10;99.90;;;;;;5006846;28;20212;-78
2021/10/29 01:50:25;;;;;;;55.23;21.30;;;4.20;99.90;;;;;;5003102;28;20177;-78
2021/10/29 01:52:51;;;;;;;67.63;21.63;;;4.20;99.90;;;;;;5011503;28;20230;-79
2021/10/29 01:55:17;;;;;;;87.97;22.47;;;4.20;99.90;;;;;;5012632;28;20552;-77
2021/10/29 01:57:44;;;;;;;37.17;20.67;;;4.20;99.90;;;;;;5012859;28;20203;-78
2021/10/29 02:00:10;;;;;;;29.97;19.13;;;4.20;99.90;;;;;;5012995;28;20175;-76
2021/10/29 02:02:36;;;;;;;82.37;21.63;;;4.20;99.90;;;;;;5013922;28;20235;-80
2021/10/29 02:05:02;;;;;;;95.03;23.53;;;4.20;99.90;;;;;;5014231;28;20176;-78
2021/10/29 02:07:28;;;;;;;100.73;22.13;;;4.20;99.90;;;;;;5014341;28;20197;-78
2021/10/29 02:09:53;;;;;;;48.50;22.63;;;4.10;99.90;;;;;;5014580;28;20185;-78
2021/10/29 02:12:19;;;;;;;53.83;23.20;;;4.20;99.90;;;;;;5013208;28;20626;-77
2021/10/29 02:14:45;;;;;;;99.20;24.57;;;4.20;99.90;;;;;;5012469;28;20185;-78
2021/10/29 02:17:11;;;;;;;84.03;23.77;;;4.30;99.90;;;;;;5012989;28;20200;-78
2021/10/29 02:19:36;;;;;;;101.93;21.33;;;4.30;99.90;;;;;;5014425;28;20675;-78
2021/10/29 02:22:02;;;;;;;44.17;21.83;;;4.20;99.90;;;;;;5013875;28;20236;-78
2021/10/29 02:24:28;;;;;;;84.60;22.13;;;4.30;99.90;;;;;;5013456;28;20717;-78
2021/10/29 02:26:54;;;;;;;72.43;21.77;;;4.40;99.90;;;;;;5012936;28;20288;-78
2021/10/29 02:29:20;;;;;;;78.20;21.00;;;4.30;99.90;;;;;;5012616;28;20260;-77
2021/10/29 02:31:46;;;;;;;79.50;19.37;;;4.30;99.90;;;;;;5014454;28;20623;-78
2021/10/29 02:34:11;;;;;;;68.47;22.33;;;4.30;99.90;;;;;;5012333;28;20180;-78
2021/10/29 02:36:37;;;;;;;38.10;20.43;;;4.30;99.90;;;;;;5008712;28;20203;-79
2021/10/29 02:39:03;;;;;;;75.03;19.93;;;4.40;99.90;;;;;;5011728;28;20205;-79
2021/10/29 02:41:29;;;;;;;72.77;21.03;;;4.40;99.90;;;;;;5012858;28;20214;-78
2021/10/29 02:43:55;;;;;;;75.20;20.57;;;4.40;99.90;;;;;;5014091;28;20587;-78
2021/10/29 02:46:21;;;;;;;70.67;20.67;;;4.30;99.90;;;;;;5011304;28;20316;-79
2021/10/29 02:48:47;;;;;;;66.70;19.93;;;4.20;99.90;;;;;;5015416;28;20703;-79
2021/10/29 02:51:13;;;;;;;34.57;20.80;;;4.20;99.90;;;;;;5017879;28;20173;-79
2021/10/29 02:53:39;;;;;;;79.23;21.50;;;4.20;99.90;;;;;;5016236;28;20179;-78
2021/10/29 02:56:07;;;;;;;41.30;20.80;;;4.30;99.90;;;;;;5015909;28;20707;-79
2021/10/29 02:58:33;;;;;;;38.47;21.77;;;4.30;99.90;;;;;;5017761;28;20268;-77
2021/10/29 03:01:00;;;;;;;49.20;22.03;;;4.40;99.90;;;;;;5017696;28;20177;-77
2021/10/29 03:03:26;;;;;;;53.23;22.23;;;4.50;99.90;;;;;;5016038;28;20217;-79
2021/10/29 03:05:51;;;;;;;38.50;20.17;;;4.60;99.90;;;;;;5016291;28;20643;-78
2021/10/29 03:08:17;;;;;;;78.57;21.67;;;4.60;99.90;;;;;;5016059;28;20264;-78
2021/10/29 03:10:43;;;;;;;37.47;19.00;;;4.70;99.90;;;;;;5018351;28;20179;-79
2021/10/29 03:13:09;;;;;;;49.90;21.43;;;4.70;99.90;;;;;;5004066;28;20237;-79
2021/10/29 03:15:35;;;;;;;54.83;18.83;;;4.70;99.90;;;;;;5015227;28;20192;-78
2021/10/29 03:18:01;;;;;;;58.03;19.17;;;4.60;99.90;;;;;;5015840;28;20573;-78
2021/10/29 03:20:27;;;;;;;83.13;20.70;;;4.60;99.90;;;;;;5015912;28;20197;-79
2021/10/29 03:22:53;;;;;;;40.53;21.50;;;4.50;99.90;;;;;;5016537;28;20200;-78
2021/10/29 03:25:18;;;;;;;37.87;21.67;;;4.60;99.90;;;;;;5017229;28;20180;-80
2021/10/29 03:27:44;;;;;;;34.83;21.53;;;4.60;99.90;;;;;;5016819;28;20197;-78
2021/10/29 03:30:11;;;;;;;46.73;22.67;;;4.70;99.90;;;;;;5016810;28;20637;-79
2021/10/29 03:32:37;;;;;;;53.23;22.47;;;4.70;99.90;;;;;;5016402;28;20184;-78
2021/10/29 03:35:04;;;;;;;47.10;22.23;;;4.70;99.90;;;;;;5017350;28;20182;-78
2021/10/29 03:43:03;;;;;;;41.03;20.43;;;4.70;99.90;;;;;;5016687;28;20561;-78
2021/10/29 03:45:28;;;;;;;49.70;21.70;;;4.50;99.90;;;;;;5016631;28;20185;-78
2021/10/29 03:47:57;;;;;;;43.07;21.27;;;4.60;99.90;;;;;;5016688;28;20700;-78
2021/10/29 03:50:32;;;;;;;38.90;20.23;;;4.70;99.90;;;;;;5034578;22;20257;-80
2021/10/29 03:55:39;;;;;;;26.93;16.27;;;4.70;99.90;;;;;;5008758;28;20593;-79
2021/10/29 03:58:05;;;;;;;21.10;15.50;;;4.70;99.90;;;;;;5012591;28;20189;-79
2021/10/29 04:00:31;;;;;;;24.03;15.40;;;4.70;99.90;;;;;;5000456;28;20202;-78
2021/10/29 04:03:02;;;;;;;21.77;15.00;;;4.80;99.90;;;;;;4996347;28;20328;-80
2021/10/29 04:05:29;;;;;;;20.03;15.33;;;4.70;99.90;;;;;;4996782;28;20201;-78
2021/10/29 04:07:55;;;;;;;19.87;15.53;;;4.70;99.90;;;;;;4995911;28;20208;-79
2021/10/29 04:10:25;;;;;;;22.53;15.70;;;4.70;99.90;;;;;;4994583;28;20291;-80
2021/10/29 04:12:55;;;;;;;22.87;15.40;;;4.70;99.90;;;;;;4995284;28;20185;-78
2021/10/29 04:15:22;;;;;;;22.57;15.53;;;4.60;99.90;;;;;;4996194;28;20168;-78
2021/10/29 04:17:48;;;;;;;23.53;16.53;;;4.70;99.90;;;;;;4996871;28;20204;-78
2021/10/29 04:20:14;;;;;;;28.47;16.97;;;4.70;99.90;;;;;;4996793;28;20668;-78
2021/10/29 04:22:40;;;;;;;24.50;16.87;;;4.70;99.90;;;;;;4997145;28;20665;-78
2021/10/29 04:25:06;;;;;;;30.07;17.03;;;4.70;99.90;;;;;;4996871;28;20594;-80
2021/10/29 04:27:34;;;;;;;25.07;16.63;;;4.80;99.90;;;;;;4996852;28;20175;-78
2021/10/29 04:30:01;;;;;;;26.97;16.47;;;4.90;99.90;;;;;;4995514;28;20619;-79
2021/10/29 04:32:26;;;;;;;22.70;16.27;;;4.90;99.90;;;;;;4996600;28;20190;-80
2021/10/29 04:34:52;;;;;;;29.23;16.93;;;4.90;99.90;;;;;;4996772;28;20179;-79
2021/10/29 04:37:19;;;;;;;25.53;16.07;;;4.90;99.90;;;;;;4995322;28;20214;-80
2021/10/29 04:39:46;;;;;;;26.67;16.80;;;4.90;99.90;;;;;;4996448;28;20284;-81
2021/10/29 04:42:12;;;;;;;26.60;15.63;;;5.00;99.90;;;;;;4996141;28;20195;-78
2021/10/29 04:44:38;;;;;;;27.63;16.43;;;5.00;99.90;;;;;;4995247;28;20270;-78
2021/10/29 04:47:04;;;;;;;25.97;16.87;;;5.00;99.90;;;;;;4994615;28;20339;-81
2021/10/29 04:49:29;;;;;;;25.93;17.17;;;4.90;99.90;;;;;;4995537;28;20218;-78
2021/10/29 04:51:58;;;;;;;28.17;18.20;;;4.80;99.90;;;;;;4995025;28;20179;-79
2021/10/29 04:54:24;;;;;;;33.60;18.03;;;4.90;99.90;;;;;;4992776;28;20182;-80
2021/10/29 04:56:51;;;;;;;26.53;16.47;;;4.90;99.90;;;;;;4991620;28;20208;-80
2021/10/29 04:59:18;;;;;;;26.07;17.00;;;5.00;99.90;;;;;;4989270;28;20211;-79
2021/10/29 05:01:45;;;;;;;45.20;17.43;;;5.00;99.90;;;;;;4991733;28;20194;-83
2021/10/29 05:04:12;;;;;;;29.90;17.70;;;5.00;99.90;;;;;;4988020;28;20184;-80
2021/10/29 05:06:37;;;;;;;29.07;16.80;;;5.00;99.90;;;;;;5008012;28;20166;-80
2021/10/29 05:09:03;;;;;;;30.47;16.90;;;5.00;99.90;;;;;;4994523;28;20237;-79
2021/10/29 05:11:29;;;;;;;27.00;17.27;;;5.00;99.90;;;;;;4994898;28;20179;-78
2021/10/29 05:13:54;;;;;;;30.33;18.73;;;5.10;99.90;;;;;;4994972;28;20205;-78
2021/10/29 05:16:20;;;;;;;25.80;17.90;;;5.10;99.90;;;;;;4994231;28;20170;-82
2021/10/29 05:18:46;;;;;;;24.63;17.43;;;5.10;99.90;;;;;;4990068;28;20179;-80
2021/10/29 05:21:11;;;;;;;31.73;18.30;;;5.10;99.90;;;;;;4987432;28;20325;-77
2021/10/29 05:23:38;;;;;;;26.67;18.23;;;5.10;99.90;;;;;;4990128;28;20203;-79
2021/10/29 05:26:04;;;;;;;31.57;18.73;;;5.20;99.90;;;;;;4991000;28;20168;-78
2021/10/29 05:28:30;;;;;;;24.37;16.83;;;5.20;99.90;;;;;;4989603;28;20183;-79
2021/10/29 05:30:56;;;;;;;24.23;17.73;;;5.20;99.90;;;;;;4990636;28;20187;-79
2021/10/29 05:33:21;;;;;;;26.23;17.97;;;5.30;99.90;;;;;;4991866;28;20664;-77
2021/10/29 05:35:47;;;;;;;26.87;17.33;;;5.20;99.90;;;;;;5008684;28;20179;-78
2021/10/29 05:38:13;;;;;;;25.10;16.67;;;5.30;99.90;;;;;;4993528;28;20208;-77
2021/10/29 05:40:39;;;;;;;21.80;16.87;;;5.20;99.90;;;;;;4991783;28;20201;-78
2021/10/29 05:43:13;;;;;;;24.80;16.87;;;5.20;99.90;;;;;;4992202;28;20685;-79
2021/10/29 05:45:39;;;;;;;22.50;16.47;;;5.20;99.90;;;;;;4993611;28;20189;-77
2021/10/29 05:48:06;;;;;;;21.83;15.50;;;5.20;99.90;;;;;;4992844;28;20257;-77
2021/10/29 05:50:33;;;;;;;20.70;15.70;;;5.20;99.90;;;;;;4993584;28;20206;-78
2021/10/29 05:53:02;;;;;;;26.97;16.07;;;5.20;99.90;;;;;;4992119;28;20179;-77
2021/10/29 05:55:28;;;;;;;25.87;16.30;;;5.20;99.90;;;;;;4993325;28;20178;-77
2021/10/29 05:57:54;;;;;;;19.40;15.03;;;5.20;99.90;;;;;;4993624;28;20175;-77
2021/10/29 06:00:29;;;;;;;24.70;15.87;;;5.20;99.90;;;;;;4992395;28;20971;-79
2021/10/29 06:02:55;;;;;;;25.23;16.30;;;5.10;99.90;;;;;;4988912;28;20222;-77
2021/10/29 06:05:21;;;;;;;15.37;13.77;;;5.10;99.90;;;;;;4988390;28;20264;-78
2021/10/29 06:07:47;;;;;;;17.53;14.37;;;5.00;99.90;;;;;;4989072;28;20173;-78
2021/10/29 06:10:14;;;;;;;23.73;16.23;;;5.10;99.90;;;;;;4990323;28;20193;-79
2021/10/29 06:12:44;;;;;;;22.33;15.10;;;5.10;99.90;;;;;;4989074;28;20183;-78
2021/10/29 06:15:12;;;;;;;28.77;14.93;;;5.10;99.90;;;;;;4990997;28;20179;-80
2021/10/29 06:17:38;;;;;;;25.67;15.80;;;5.10;99.90;;;;;;4989069;28;20202;-76
2021/10/29 06:20:06;;;;;;;16.17;14.07;;;5.10;99.90;;;;;;4990544;28;20210;-78
2021/10/29 06:22:40;;;;;;;20.13;14.80;;;5.20;99.90;;;;;;4994031;28;20285;-78
2021/10/29 06:25:16;;;;;;;25.93;14.23;;;5.20;99.90;;;;;;4992767;28;20171;-79
2021/10/29 06:30:26;;;;;;;16.00;13.73;;;5.10;99.90;;;;;;4982510;28;20237;-79
2021/10/29 06:32:52;;;;;;;19.07;13.20;;;5.20;99.90;;;;;;4993804;28;20544;-80
2021/10/29 06:35:18;;;;;;;21.83;14.73;;;5.20;99.90;;;;;;4991837;28;20185;-78
2021/10/29 06:37:43;;;;;;;23.43;14.00;;;5.10;99.90;;;;;;4993328;28;20183;-80
2021/10/29 06:40:12;;;;;;;32.77;14.30;;;5.10;99.90;;;;;;4992976;28;20716;-79
2021/10/29 06:42:38;;;;;;;24.57;15.80;;;5.10;99.90;;;;;;4993176;28;20186;-77
2021/10/29 06:45:20;;;;;;;33.13;14.13;;;5.10;99.90;;;;;;4993987;28;20167;-79
2021/10/29 07:42:40;;;;;;;35.33;20.23;;;5.00;99.90;;;;;;4994420;28;20256;-79
2021/10/29 07:45:08;;;;;;;43.83;19.63;;;5.00;99.90;;;;;;4990425;28;20201;-79
2021/10/29 07:47:35;;;;;;;62.73;20.70;;;5.00;99.90;;;;;;4995906;28;20165;-77
2021/10/29 07:50:02;;;;;;;32.40;20.37;;;5.00;99.90;;;;;;4992330;28;20212;-78
2021/10/29 07:52:28;;;;;;;35.33;20.87;;;5.00;99.90;;;;;;4994585;28;20175;-79
2021/10/29 07:54:54;;;;;;;30.00;19.90;;;5.10;99.90;;;;;;4994112;28;20642;-78
2021/10/29 07:57:20;;;;;;;39.37;19.03;;;5.20;99.90;;;;;;4994050;28;20181;-79
2021/10/29 07:59:47;;;;;;;53.97;16.90;;;5.20;99.90;;;;;;4992824;28;20204;-79
2021/10/29 08:02:15;;;;;;;29.50;17.93;;;5.20;99.90;;;;;;4994753;28;20281;-79
2021/10/29 08:04:41;;;;;;;41.67;17.90;;;5.10;99.90;;;;;;4992425;28;20218;-79
2021/10/29 08:07:06;;;;;;;33.60;19.10;;;5.10;99.90;;;;;;4993879;28;20215;-79
2021/10/29 08:09:32;;;;;;;31.57;19.93;;;5.10;99.90;;;;;;4994610;28;20202;-79
2021/10/29 08:11:58;;;;;;;35.10;18.83;;;5.00;99.90;;;;;;4994019;28;20260;-80
2021/10/29 08:14:23;;;;;;;26.50;18.60;;;5.10;99.90;;;;;;4991594;28;20205;-79
2021/10/29 08:16:50;;;;;;;32.53;18.33;;;5.20;99.90;;;;;;4992933;28;20187;-79
2021/10/29 08:19:26;;;;;;;30.57;18.40;;;5.30;99.90;;;;;;4994368;28;20205;-78
2021/10/29 08:21:52;;;;;;;32.77;19.53;;;5.20;99.90;;;;;;4984993;28;20200;-78
2021/10/29 08:24:18;;;;;;;49.03;18.20;;;5.30;99.90;;;;;;4995065;28;20183;-78
2021/10/29 08:26:44;;;;;;;28.90;18.63;;;5.20;99.90;;;;;;4994245;28;20562;-79
2021/10/29 08:29:10;;;;;;;50.70;26.07;;;5.20;99.90;;;;;;4993720;28;20202;-77
2021/10/29 08:31:35;;;;;;;30.07;18.47;;;5.20;99.90;;;;;;4993978;28;20178;-77
2021/10/29 08:34:01;;;;;;;28.53;17.53;;;5.20;99.90;;;;;;4993356;28;20173;-78
2021/10/29 08:36:29;;;;;;;23.00;18.23;;;5.20;99.90;;;;;;4994832;28;20266;-78
2021/10/29 08:38:55;;;;;;;24.27;17.87;;;5.20;99.90;;;;;;4994281;28;20174;-79
2021/10/29 08:41:21;;;;;;;27.00;18.23;;;5.30;99.90;;;;;;4994555;28;20574;-78
2021/10/29 08:43:47;;;;;;;35.60;19.37;;;5.30;99.90;;;;;;4992822;28;20249;-79
2021/10/29 08:46:14;;;;;;;25.67;18.03;;;5.30;99.90;;;;;;4994994;28;20181;-79
2021/10/29 08:48:40;;;;;;;34.17;17.43;;;5.30;99.90;;;;;;4996473;28;20188;-79
2021/10/29 08:51:06;;;;;;;23.73;16.80;;;5.20;99.90;;;;;;4989549;28;20209;-79
2021/10/29 08:53:32;;;;;;;31.00;16.93;;;5.30;99.90;;;;;;4994101;28;20704;-78
2021/10/29 08:56:02;;;;;;;24.27;17.00;;;5.30;99.90;;;;;;4994173;28;20168;-78
2021/10/29 08:58:29;;;;;;;27.37;17.60;;;5.30;99.90;;;;;;4988442;28;20186;-80
2021/10/29 09:01:02;;;;;;;25.27;18.33;;;5.30;99.90;;;;;;4990961;28;20623;-79
2021/10/29 09:03:41;;;;;;;28.33;18.50;;;5.40;99.90;;;;;;4991163;28;20202;-79
2021/10/29 09:06:59;;;;;;;35.70;18.00;;;5.40;99.90;;;;;;4992777;28;20597;-78
2021/10/29 09:09:13;;;;;;;25.83;18.57;;;5.40;99.90;;;;;;4982442;28;20646;-78
2021/10/29 09:34:03;;;;;;;25.90;18.87;;;5.60;99.90;;;;;;4995407;28;20181;-78
2021/10/29 09:36:37;;;;;;;29.50;18.20;;;5.70;99.90;;;;;;4995886;28;20183;-79
2021/10/29 09:39:19;;;;;;;26.47;18.73;;;5.70;99.90;;;;;;4997845;28;20633;-80
2021/10/29 09:41:45;;;;;;;25.70;18.83;;;5.70;99.90;;;;;;4996023;28;20184;-78
2021/10/29 09:44:17;;;;;;;25.63;19.00;;;5.70;99.90;;;;;;4992102;28;20174;-79
2021/10/29 09:46:51;;;;;;;27.43;18.67;;;5.60;99.90;;;;;;4997408;28;20186;-80
2021/10/29 09:49:25;;;;;;;28.20;19.03;;;5.70;99.90;;;;;;4998614;28;20229;-80
2021/10/29 09:52:19;;;;;;;31.37;20.23;;;5.70;99.90;;;;;;4993961;28;20200;-78
2021/10/29 09:55:14;;;;;;;27.43;18.93;;;5.80;99.90;;;;;;4994318;28;20170;-78
2021/10/29 09:57:39;;;;;;;27.30;19.07;;;5.90;99.90;;;;;;4997618;28;20551;-79
2021/10/29 10:00:11;;;;;;;28.37;19.60;;;5.90;99.90;;;;;;4998990;28;20284;-79
2021/10/29 10:02:41;;;;;;;27.87;20.03;;;6.00;99.90;;;;;;4999020;28;20206;-78
2021/10/29 10:05:07;;;;;;;26.83;18.97;;;6.10;99.90;;;;;;4998012;28;20625;-79
2021/10/29 10:07:38;;;;;;;26.33;19.80;;;6.10;99.90;;;;;;4997360;28;20175;-79
2021/10/29 10:10:11;;;;;;;23.80;18.30;;;6.10;99.90;;;;;;4998694;28;20198;-79
2021/10/29 10:12:40;;;;;;;28.87;19.23;;;6.20;99.90;;;;;;4997587;28;20457;-78
2021/10/29 10:15:07;;;;;;;26.13;19.23;;;6.20;99.90;;;;;;4996993;28;20294;-78
2021/10/29 10:17:33;;;;;;;27.60;19.33;;;6.20;99.90;;;;;;4995376;28;20223;-78
2021/10/29 10:20:00;;;;;;;30.50;20.60;;;6.20;99.90;;;;;;4997104;28;20202;-78
2021/10/29 10:22:29;;;;;;;31.20;20.93;;;6.20;99.90;;;;;;4996347;28;20658;-80
2021/10/29 10:25:08;;;;;;;32.27;21.03;;;6.10;99.90;;;;;;4993588;28;20188;-80
2021/10/29 10:42:23;;;;;;;33.50;21.83;;;6.30;99.90;;;;;;4998402;28;20210;-78
2021/10/29 10:45:04;;;;;;;31.60;22.80;;;6.40;99.90;;;;;;4997066;28;20164;-80
2021/10/29 10:47:39;;;;;;;33.33;22.30;;;6.40;99.90;;;;;;5009923;28;20279;-79
2021/10/29 10:50:28;;;;;;;32.37;22.67;;;6.40;99.90;;;;;;4997356;28;20257;-80
2021/10/29 10:53:08;;;;;;;30.37;21.40;;;6.40;99.90;;;;;;4995339;28;20176;-79
2021/10/29 10:56:00;;;;;;;30.77;21.97;;;6.60;99.90;;;;;;4995770;28;20180;-80
2021/10/29 11:01:03;;;;;;;30.47;21.37;;;6.60;99.90;;;;;;4997176;28;20210;-80
2021/10/29 11:12:42;;;;;;;29.37;20.83;;;6.70;99.90;;;;;;4995349;28;20183;-79
2021/10/29 11:15:08;;;;;;;31.63;21.70;;;6.70;99.90;;;;;;4989425;28;20190;-79
2021/10/29 11:17:45;;;;;;;32.27;20.73;;;6.60;99.90;;;;;;4994830;28;20179;-78
2021/10/29 11:20:12;;;;;;;32.03;19.80;;;6.60;99.90;;;;;;5010138;28;20199;-79
2021/10/29 11:22:45;;;;;;;27.53;19.73;;;6.70;99.90;;;;;;4992304;28;20207;-79
2021/10/29 11:25:13;;;;;;;29.57;20.13;;;6.50;99.90;;;;;;4993059;28;20198;-79
2021/10/29 11:27:41;;;;;;;29.27;20.30;;;6.60;99.90;;;;;;4992096;28;20647;-79
2021/10/29 11:30:08;;;;;;;29.60;19.97;;;6.70;99.90;;;;;;4992861;28;20244;-80
2021/10/29 11:32:35;;;;;;;31.17;21.60;;;6.70;99.90;;;;;;4986090;28;20187;-80
2021/10/29 11:35:02;;;;;;;28.60;20.67;;;6.70;99.90;;;;;;4985540;28;20193;-80
2021/10/29 11:37:30;;;;;;;29.27;20.17;;;6.70;99.90;;;;;;4991762;28;20177;-80
2021/10/29 11:39:56;;;;;;;30.30;21.10;;;6.70;99.90;;;;;;4986661;28;20626;-80
2021/10/29 11:42:22;;;;;;;29.63;21.00;;;6.70;99.90;;;;;;4993567;28;20285;-80
2021/10/29 11:44:48;;;;;;;36.87;23.27;;;6.70;99.90;;;;;;4999613;28;20208;-80
2021/10/29 11:47:15;;;;;;;39.93;23.70;;;6.70;99.90;;;;;;4990567;28;20245;-80
2021/10/29 11:49:41;;;;;;;39.20;24.00;;;6.70;99.90;;;;;;4990546;28;20337;-79
2021/10/29 11:52:08;;;;;;;36.70;24.10;;;6.80;99.90;;;;;;4993652;28;20630;-80
2021/10/29 11:54:39;;;;;;;34.37;22.73;;;6.80;99.90;;;;;;4995187;28;20662;-80
2021/10/29 12:00:21;;;;;;;29.53;21.03;;;6.80;99.90;;;;;;4992662;28;20214;-80
2021/10/29 12:08:25;;;;;;;31.80;21.83;;;6.90;99.90;;;;;;4992586;28;20183;-78
2021/10/29 12:11:02;;;;;;;31.30;21.47;;;6.80;99.90;;;;;;4982268;28;20191;-80
2021/10/29 12:13:29;;;;;;;31.50;21.27;;;6.90;99.90;;;;;;4987781;28;20700;-79
2021/10/29 12:15:55;;;;;;;36.13;22.43;;;6.90;99.90;;;;;;4985316;28;20242;-80
2021/10/29 12:18:30;;;;;;;29.30;20.90;;;7.00;99.90;;;;;;4986626;28;20187;-80
2021/10/29 12:20:56;;;;;;;32.40;21.73;;;7.00;99.90;;;;;;4988834;28;20206;-80
2021/10/29 12:23:29;;;;;;;46.33;26.73;;;6.90;99.90;;;;;;4991099;28;20186;-80
2021/10/29 12:26:02;;;;;;;33.53;23.10;;;6.90;99.90;;;;;;4989588;28;20160;-80
2021/10/29 12:31:10;;;;;;;32.77;22.97;;;6.90;99.90;;;;;;4982711;28;20297;-80
2021/10/29 12:53:44;;;;;;;30.10;21.17;;;7.10;99.90;;;;;;4997252;28;20619;-81
2021/10/29 13:01:57;;;;;;;33.23;22.93;;;7.20;99.90;;;;;;4990802;28;20221;-80
2021/10/29 13:04:39;;;;;;;34.20;22.67;;;7.20;99.90;;;;;;4988500;28;20176;-80
2021/10/29 13:07:06;;;;;;;34.83;22.97;;;7.20;99.90;;;;;;4995802;28;20170;-80
2021/10/29 13:09:39;;;;;;;37.63;23.80;;;7.30;99.90;;;;;;4991344;28;20224;-81
2021/10/29 13:12:37;;;;;;;35.97;23.40;;;7.30;99.90;;;;;;4992148;28;20191;-80
2021/10/29 13:15:00;;;;;;;32.60;22.90;;;7.30;99.90;;;;;;4992737;28;20202;-81
2021/10/29 13:17:31;;;;;;;35.90;25.07;;;7.30;99.90;;;;;;4993249;28;20708;-80
2021/10/29 13:20:20;;;;;;;66.27;42.30;;;7.40;99.90;;;;;;4994780;28;20202;-81
2021/10/29 13:36:29;;;;;;;40.83;25.23;;;7.30;99.90;;;;;;4988777;28;20286;-80
2021/10/29 13:55:31;;;;;;;38.60;25.63;;;7.30;99.90;;;;;;4990645;28;20262;-79
2021/10/29 14:28:10;;;;;;;42.43;28.10;;;7.70;99.90;;;;;;4988022;28;20203;-80
2021/10/29 14:30:14;;;;;;;51.57;32.17;;;7.70;99.90;;;;;;4992548;28;20709;-81
2021/10/29 14:35:25;;;;;;;60.57;34.43;;;7.60;99.90;;;;;;4995876;28;20190;-80
2021/10/29 14:38:03;;;;;;;60.30;35.03;;;7.60;99.90;;;;;;4996335;28;20222;-78
2021/10/29 14:45:56;;;;;;;65.00;36.73;;;7.60;99.90;;;;;;4999524;28;20219;-78
2021/10/29 15:17:44;;;;;;;66.20;39.30;;;7.80;99.90;;;;;;4998347;28;20225;-80
2021/10/29 15:43:52;;;;;;;56.63;32.30;;;7.70;99.90;;;;;;4998162;28;20244;-78
2021/10/29 15:46:28;;;;;;;66.33;37.20;;;7.60;99.90;;;;;;4998067;28;20171;-78
2021/10/29 15:48:58;;;;;;;62.50;34.87;;;7.50;99.90;;;;;;4996437;28;20183;-77
2021/10/29 15:51:24;;;;;;;68.37;37.23;;;7.60;99.90;;;;;;4997680;28;20180;-80
2021/10/29 15:53:50;;;;;;;70.57;38.53;;;7.60;99.90;;;;;;4997651;28;20259;-78
2021/10/29 15:56:35;;;;;;;59.47;36.23;;;7.60;99.90;;;;;;4997504;28;20199;-78
2021/10/29 16:18:14;;;;;;;91.53;46.53;;;7.50;99.90;;;;;;4998032;28;20191;-77
2021/10/29 16:20:39;;;;;;;83.70;46.23;;;7.50;99.90;;;;;;4996335;28;20674;-78
2021/10/29 16:23:05;;;;;;;85.90;48.63;;;7.50;99.90;;;;;;4997611;28;20703;-78
2021/10/29 16:25:36;;;;;;;133.57;69.70;;;7.50;99.90;;;;;;4998625;28;20635;-78
2021/10/29 16:28:05;;;;;;;107.80;55.17;;;7.50;99.90;;;;;;5000151;28;20172;-80
2021/10/29 16:30:33;;;;;;;125.30;60.17;;;7.50;99.90;;;;;;5001066;28;20199;-78
2021/10/29 16:35:28;;;;;;;77.73;43.40;;;7.50;99.90;;;;;;4997142;28;20164;-79
2021/10/29 16:37:53;;;;;;;99.63;49.90;;;7.50;99.90;;;;;;4996812;28;20183;-78
2021/10/29 16:40:19;;;;;;;102.53;57.43;;;7.50;99.90;;;;;;4998819;28;20196;-78
2021/10/29 16:42:45;;;;;;;95.83;54.73;;;7.50;99.90;;;;;;4999343;28;20199;-79
2021/10/29 16:45:15;;;;;;;81.33;44.13;;;7.40;99.90;;;;;;4997660;28;20168;-78
2021/10/29 16:47:41;;;;;;;82.87;43.07;;;7.40;99.90;;;;;;4996222;28;20557;-78
2021/10/29 16:50:09;;;;;;;85.37;44.90;;;7.40;99.90;;;;;;4999665;28;20211;-80
2021/10/29 16:52:35;;;;;;;80.93;42.60;;;7.30;99.90;;;;;;4996276;28;20552;-78
2021/10/29 16:55:01;;;;;;;82.70;42.33;;;7.30;99.90;;;;;;4995722;28;20274;-79
2021/10/29 16:57:27;;;;;;;86.80;44.27;;;7.30;99.90;;;;;;4995334;28;20190;-79
2021/10/29 16:59:53;;;;;;;81.20;43.37;;;7.30;99.90;;;;;;4995226;28;20200;-78
2021/10/29 17:02:18;;;;;;;86.03;43.97;;;7.30;99.90;;;;;;4995952;28;20647;-79
2021/10/29 17:04:44;;;;;;;88.60;45.03;;;7.20;99.90;;;;;;4994384;28;20171;-79
2021/10/29 17:07:10;;;;;;;89.27;44.33;;;7.30;99.90;;;;;;4994869;28;20195;-78
2021/10/29 17:09:35;;;;;;;87.40;43.40;;;7.20;99.90;;;;;;4996161;28;20227;-79
2021/10/29 17:12:01;;;;;;;87.37;43.90;;;7.30;99.90;;;;;;4996602;28;20267;-79
2021/10/29 17:14:28;;;;;;;89.87;44.67;;;7.30;99.90;;;;;;4994726;28;20656;-78
2021/10/29 17:16:54;;;;;;;86.13;42.90;;;7.30;99.90;;;;;;4995646;28;20576;-78
2021/10/29 17:19:21;;;;;;;86.20;44.13;;;7.30;99.90;;;;;;4994424;28;20191;-78
2021/10/29 17:21:47;;;;;;;90.23;43.27;;;7.30;99.90;;;;;;4994917;28;20167;-78
2021/10/29 17:24:14;;;;;;;84.23;42.90;;;7.40;99.90;;;;;;4996307;28;20250;-79
2021/10/29 17:26:40;;;;;;;86.93;43.83;;;7.30;99.90;;;;;;4996008;28;20547;-79
2021/10/29 17:29:06;;;;;;;89.60;43.87;;;7.30;99.90;;;;;;4993847;28;20562;-78
2021/10/29 17:31:32;;;;;;;86.70;42.43;;;7.30;99.90;;;;;;4993887;28;20183;-78
2021/10/29 17:33:57;;;;;;;84.40;41.13;;;7.30;99.90;;;;;;4996229;28;20261;-78